Terminal Aerodrome Forecast
Issued by NWS Jackson, KY

Home | Current Version | Previous Version | Text Only | Print | Product List | Glossary On
Versions: 1 2 3 4 5 6 7 8 9 10 11 12 13 14 15 16 17 18 19 20 21 22 23 24
000
FTUS43 KJKL 250709 AAA
TAFLOZ
TAF AMD
KLOZ 250709Z 2507/2606 27009KT 5SM -SHRA BR VCTS SCT025 BKN050CB
     FM250900 28012KT P6SM VCSH OVC035
     FM251400 27014KT P6SM VCSH BKN045
     FM251600 27015G23KT P6SM VCSH BKN060
     FM252000 28014KT P6SM -SHRA BKN060
     FM252300 28010KT P6SM BKN045=

USA.gov is the U.S. government's official web portal to all federal, state and local government web resources and services.